createdAt,value
2022-12-13T00:00:57.377Z,100471.66
2022-12-13T00:03:24.006Z,100470.94
2022-12-13T00:05:50.655Z,100473.59
2022-12-13T00:08:18.232Z,100469.91
2022-12-13T00:10:48.250Z,100479.19
2022-12-13T00:13:15.400Z,100469.50
2022-12-13T00:15:41.987Z,100466.19
2022-12-13T00:18:10.249Z,100467.19
2022-12-13T00:20:40.189Z,100474.13
2022-12-13T00:23:06.813Z,100470.78
2022-12-13T00:25:33.963Z,100464.59
2022-12-13T00:28:00.719Z,100464.59
2022-12-13T00:30:31.699Z,100457.66
2022-12-13T00:32:58.740Z,100460.69
2022-12-13T00:35:25.625Z,100458.94
2022-12-13T00:37:52.653Z,100451.72
2022-12-13T00:40:19.283Z,100449.13
2022-12-13T00:42:45.905Z,100454.38
2022-12-13T00:45:13.420Z,100449.34
2022-12-13T00:47:40.403Z,100455.25
2022-12-13T00:50:07.325Z,100452.84
2022-12-13T00:52:34.819Z,100460.34
2022-12-13T00:55:01.487Z,100452.75
2022-12-13T00:57:28.131Z,100452.72
2022-12-13T01:00:20.318Z,100450.16
2022-12-13T01:02:46.965Z,100445.59
2022-12-13T01:05:13.862Z,100445.59
2022-12-13T01:07:44.450Z,100452.53
2022-12-13T01:10:12.446Z,100448.88
2022-12-13T01:12:39.350Z,100456.06
2022-12-13T01:15:06.936Z,100456.09
2022-12-13T01:17:37.109Z,100443.22
2022-12-13T01:20:04.028Z,100444.97
2022-12-13T01:22:30.696Z,100446.75
2022-12-13T01:24:57.320Z,100439.69
2022-12-13T01:27:23.921Z,100442.25
2022-12-13T01:29:50.502Z,100444.00
2022-12-13T01:32:17.163Z,100444.41
2022-12-13T01:34:43.819Z,100436.22
2022-12-13T01:37:10.488Z,100441.97
2022-12-13T01:39:38.237Z,100439.34
2022-12-13T01:42:05.162Z,100440.94
2022-12-13T01:44:58.623Z,100444.47
2022-12-13T01:47:30.362Z,100447.47
2022-12-13T01:49:59.688Z,100447.50
2022-12-13T01:52:28.597Z,100443.16
2022-12-13T01:54:56.753Z,100440.69
2022-12-13T01:57:31.598Z,100439.50
2022-12-13T01:59:58.393Z,100445.56
2022-12-13T02:02:25.008Z,100452.59
2022-12-13T02:05:05.159Z,100444.84
2022-12-13T02:07:33.189Z,100442.34
2022-12-13T02:10:01.429Z,100446.75
2022-12-13T02:12:30.829Z,100439.75
2022-12-13T02:15:00.932Z,100439.75
2022-12-13T02:17:44.660Z,100437.19
2022-12-13T02:20:11.936Z,100436.44
2022-12-13T02:23:18.044Z,100443.16
2022-12-13T02:25:59.989Z,100447.78
2022-12-13T02:29:02.937Z,100446.59
2022-12-13T02:31:32.644Z,100441.50
2022-12-13T02:33:59.277Z,100435.44
2022-12-13T02:36:36.453Z,100434.41
2022-12-13T02:39:14.440Z,100436.91
2022-12-13T02:41:47.983Z,100437.06
2022-12-13T02:44:22.750Z,100434.59
2022-12-13T02:46:59.282Z,100440.63
2022-12-13T02:49:29.360Z,100437.91
2022-12-13T02:51:56.849Z,100437.28
2022-12-13T02:54:24.081Z,100437.06
2022-12-13T02:56:58.110Z,100436.22
2022-12-13T02:59:29.831Z,100429.19
2022-12-13T03:02:09.796Z,100436.94
2022-12-13T03:05:03.239Z,100430.16
2022-12-13T03:07:36.283Z,100433.47
2022-12-13T03:10:11.174Z,100434.63
2022-12-13T03:13:13.468Z,100437.34
2022-12-13T03:15:46.847Z,100424.16
2022-12-13T03:18:17.253Z,100432.22
2022-12-13T03:20:49.315Z,100429.59
2022-12-13T03:23:17.379Z,100426.75
2022-12-13T03:25:44.601Z,100433.53
2022-12-13T03:28:12.808Z,100425.06
2022-12-13T03:30:39.536Z,100423.19
2022-12-13T03:33:06.279Z,100425.66
2022-12-13T03:35:34.229Z,100425.25
2022-12-13T03:38:11.321Z,100417.50
2022-12-13T03:40:38.093Z,100427.03
2022-12-13T03:43:05.601Z,100417.56
2022-12-13T03:45:33.015Z,100424.28
2022-12-13T03:47:59.611Z,100423.50
2022-12-13T03:50:27.494Z,100418.47
2022-12-13T03:53:01.678Z,100416.22
2022-12-13T03:55:28.828Z,100412.06
2022-12-13T03:57:55.734Z,100411.25
2022-12-13T04:00:22.941Z,100428.31
2022-12-13T04:02:49.811Z,100424.28
2022-12-13T04:05:16.616Z,100420.81
2022-12-13T04:07:48.145Z,100415.59
2022-12-13T04:10:26.359Z,100416.22
2022-12-13T04:13:13.261Z,100413.91
2022-12-13T04:15:40.090Z,100412.84
2022-12-13T04:18:06.757Z,100411.94
2022-12-13T04:20:33.364Z,100407.00
2022-12-13T04:23:00.676Z,100405.16
2022-12-13T04:25:27.559Z,100405.81
2022-12-13T04:27:54.140Z,100400.75
2022-12-13T04:30:20.960Z,100401.41
2022-12-13T04:32:47.544Z,100397.31
2022-12-13T04:35:16.397Z,100397.59
2022-12-13T04:37:43.656Z,100400.84
2022-12-13T04:40:10.828Z,100405.81
2022-12-13T04:42:38.340Z,100402.22
2022-12-13T04:45:05.596Z,100397.94
2022-12-13T04:47:32.194Z,100394.47
2022-12-13T04:49:58.886Z,100395.53
2022-12-13T04:52:28.901Z,100404.13
2022-12-13T04:54:56.315Z,100409.47
2022-12-13T04:57:23.190Z,100401.53
2022-12-13T04:59:50.009Z,100404.31
2022-12-13T05:02:23.140Z,100405.59
2022-12-13T05:04:53.770Z,100404.94
2022-12-13T05:07:21.859Z,100406.69
2022-12-13T05:09:48.679Z,100414.34
2022-12-13T05:12:23.138Z,100410.88
2022-12-13T05:14:54.185Z,100418.81
2022-12-13T05:17:20.930Z,100418.78
2022-12-13T05:19:47.593Z,100411.69
2022-12-13T05:22:20.407Z,100420.28
2022-12-13T05:24:47.306Z,100414.31
2022-12-13T05:27:25.552Z,100419.59
2022-12-13T05:30:02.845Z,100420.59
2022-12-13T05:32:42.476Z,100411.94
2022-12-13T05:35:22.909Z,100422.16
2022-12-13T05:37:54.076Z,100410.44
2022-12-13T05:40:31.626Z,100420.75
2022-12-13T05:43:01.547Z,100422.22
2022-12-13T05:45:30.107Z,100411.94
2022-12-13T05:47:57.217Z,100411.06
2022-12-13T05:50:24.665Z,100420.59
2022-12-13T05:52:51.363Z,100420.75
2022-12-13T05:55:18.365Z,100421.53
2022-12-13T05:57:50.033Z,100428.38
2022-12-13T06:00:29.791Z,100432.56
2022-12-13T06:03:00.505Z,100426.41
2022-12-13T06:05:28.738Z,100426.41
2022-12-13T06:07:57.630Z,100429.00
2022-12-13T06:10:25.125Z,100434.97
2022-12-13T06:13:06.553Z,100436.22
2022-12-13T06:15:49.096Z,100423.00
2022-12-13T06:18:15.689Z,100438.59
2022-12-13T06:20:42.361Z,100435.31
2022-12-13T06:23:09.193Z,100438.47
2022-12-13T06:25:40.723Z,100438.34
2022-12-13T06:28:07.315Z,100441.81
2022-12-13T06:30:33.934Z,100434.22
2022-12-13T06:33:00.572Z,100437.50
2022-12-13T06:35:29.839Z,100446.88
2022-12-13T06:38:01.768Z,100445.19
2022-12-13T06:40:32.199Z,100448.78
2022-12-13T06:42:58.821Z,100443.53
2022-12-13T06:45:25.934Z,100440.91
2022-12-13T06:47:52.542Z,100450.09
2022-12-13T06:50:19.371Z,100449.16
2022-12-13T06:52:46.829Z,100451.34
2022-12-13T06:55:13.824Z,100463.22
2022-12-13T06:57:41.360Z,100462.38
2022-12-13T07:00:10.018Z,100450.44
2022-12-13T07:02:38.090Z,100466.88
2022-12-13T07:05:05.396Z,100456.53
2022-12-13T07:07:32.077Z,100452.19
2022-12-13T07:09:58.710Z,100457.34
2022-12-13T07:12:25.330Z,100472.81
2022-12-13T07:14:52.003Z,100464.03
2022-12-13T07:17:32.623Z,100460.63
2022-12-13T07:20:08.172Z,100468.41
2022-12-13T07:22:38.755Z,100461.53
2022-12-13T07:25:28.004Z,100464.19
2022-12-13T07:28:06.123Z,100474.53
2022-12-13T07:30:34.534Z,100474.38
2022-12-13T07:33:09.048Z,100482.16
2022-12-13T07:35:37.049Z,100473.72
2022-12-13T07:38:05.024Z,100476.41
2022-12-13T07:40:34.006Z,100490.97
2022-12-13T07:43:00.636Z,100482.50
2022-12-13T07:45:27.331Z,100492.28
2022-12-13T07:47:54.146Z,100495.56
2022-12-13T07:50:24.817Z,100484.41
2022-12-13T07:52:52.829Z,100481.94
2022-12-13T07:55:23.311Z,100484.25
2022-12-13T07:58:08.985Z,100488.50
2022-12-13T08:00:36.914Z,100492.03
2022-12-13T08:03:03.933Z,100492.06
2022-12-13T08:05:38.988Z,100488.63
2022-12-13T08:08:08.222Z,100491.41
2022-12-13T08:10:35.340Z,100486.50
2022-12-13T08:13:02.919Z,100500.59
2022-12-13T08:15:29.712Z,100496.91
2022-12-13T08:17:57.249Z,100496.00
2022-12-13T08:20:23.982Z,100500.25
2022-12-13T08:23:01.695Z,100498.66
2022-12-13T08:25:30.198Z,100503.22
2022-12-13T08:28:01.422Z,100510.69
2022-12-13T08:30:31.281Z,100510.72
2022-12-13T08:32:57.954Z,100513.44
2022-12-13T08:35:33.647Z,100516.47
2022-12-13T08:38:01.076Z,100523.25
2022-12-13T08:40:27.889Z,100517.97
2022-12-13T08:42:57.819Z,100518.78
2022-12-13T08:45:24.936Z,100517.97
2022-12-13T08:47:51.644Z,100526.91
2022-12-13T08:50:18.464Z,100526.00
2022-12-13T08:52:45.229Z,100528.72
2022-12-13T08:55:13.494Z,100526.03
2022-12-13T08:57:41.122Z,100522.75
2022-12-13T09:00:11.314Z,100527.94
2022-12-13T09:02:38.851Z,100528.97
2022-12-13T09:05:07.539Z,100530.84
2022-12-13T09:07:36.325Z,100529.28
2022-12-13T09:10:26.300Z,100532.19
2022-12-13T09:13:01.506Z,100530.13
2022-12-13T09:15:33.843Z,100526.22
2022-12-13T09:18:05.043Z,100524.88
2022-12-13T09:20:40.831Z,100527.47
2022-12-13T09:23:08.538Z,100525.50
2022-12-13T09:25:41.164Z,100533.69
2022-12-13T09:28:09.450Z,100533.72
2022-12-13T09:30:37.543Z,100526.91
2022-12-13T09:33:28.294Z,100534.75
2022-12-13T09:35:54.542Z,100535.88
2022-12-13T09:38:21.218Z,100539.09
2022-12-13T09:40:49.485Z,100538.00
2022-12-13T09:43:31.763Z,100540.53
2022-12-13T09:46:01.020Z,100544.06
2022-12-13T09:48:29.362Z,100541.84
2022-12-13T09:51:16.685Z,100538.44
2022-12-13T09:53:50.080Z,100534.25
2022-12-13T09:56:21.942Z,100535.69
2022-12-13T09:58:50.918Z,100528.84
2022-12-13T10:01:23.067Z,100531.28
2022-12-13T10:03:52.534Z,100526.09
2022-12-13T10:06:22.615Z,100527.22
2022-12-13T10:08:57.681Z,100528.41
2022-12-13T10:11:31.999Z,100525.50
2022-12-13T10:14:10.051Z,100535.16
2022-12-13T10:16:37.354Z,100526.66
2022-12-13T10:19:28.190Z,100528.44
2022-12-13T10:22:02.258Z,100521.47
2022-12-13T10:24:54.320Z,100527.69
2022-12-13T10:27:27.980Z,100520.66
2022-12-13T10:30:12.915Z,100511.38
2022-12-13T10:32:55.082Z,100516.63
2022-12-13T10:35:28.899Z,100519.47
2022-12-13T10:37:58.201Z,100511.34
2022-12-13T10:40:33.889Z,100507.34
2022-12-13T10:43:21.714Z,100519.16
2022-12-13T10:46:02.449Z,100516.22
2022-12-13T10:48:38.436Z,100506.56
2022-12-13T10:51:08.783Z,100498.56
2022-12-13T10:53:46.923Z,100495.41
2022-12-13T10:56:14.353Z,100503.13
2022-12-13T10:58:52.799Z,100517.94
2022-12-13T11:01:22.687Z,100508.31
2022-12-13T11:04:03.591Z,100504.94
2022-12-13T11:06:44.694Z,100502.66
2022-12-13T11:09:38.180Z,100504.28
2022-12-13T11:12:14.758Z,100503.38
2022-12-13T11:15:06.342Z,100509.69
2022-12-13T11:17:37.054Z,100498.59
2022-12-13T11:20:15.740Z,100500.16
2022-12-13T11:22:42.399Z,100501.91
2022-12-13T11:25:17.628Z,100501.66
2022-12-13T11:27:50.205Z,100497.91
2022-12-13T11:30:41.572Z,100494.31
2022-12-13T11:33:27.539Z,100485.66
2022-12-13T11:36:08.567Z,100494.47
2022-12-13T11:39:11.683Z,100491.16
2022-12-13T11:41:49.566Z,100483.06
2022-12-13T11:44:29.015Z,100488.34
2022-12-13T11:46:58.494Z,100478.94
2022-12-13T11:49:37.707Z,100472.00
2022-12-13T11:52:31.211Z,100474.56
2022-12-13T11:55:05.637Z,100464.53
2022-12-13T11:57:41.465Z,100481.81
2022-12-13T12:00:34.029Z,100474.91
2022-12-13T12:03:30.781Z,100472.47
2022-12-13T12:06:01.741Z,100474.88
2022-12-13T12:08:38.729Z,100467.25
2022-12-13T12:11:25.019Z,100474.00
2022-12-13T12:13:55.115Z,100475.78
2022-12-13T12:16:37.610Z,100467.00
2022-12-13T12:19:16.068Z,100480.84
2022-12-13T12:22:15.202Z,100470.75
2022-12-13T12:25:07.314Z,100477.47
2022-12-13T12:27:56.125Z,100468.13
2022-12-13T12:30:33.439Z,100472.31
2022-12-13T12:33:21.178Z,100474.66
2022-12-13T12:36:08.921Z,100473.00
2022-12-13T12:38:44.730Z,100476.53
2022-12-13T12:41:16.754Z,100471.56
2022-12-13T12:43:49.253Z,100480.84
2022-12-13T12:47:08.592Z,100475.06
2022-12-13T12:50:18.847Z,100467.69
2022-12-13T12:53:17.764Z,100473.69
2022-12-13T12:55:49.895Z,100479.44
2022-12-13T12:58:46.105Z,100473.50
2022-12-13T13:01:37.721Z,100472.06
2022-12-13T13:04:12.449Z,100482.19
2022-12-13T13:06:46.756Z,100484.56
2022-12-13T13:09:17.777Z,100490.56
2022-12-13T13:11:57.581Z,100486.03
2022-12-13T13:14:32.281Z,100492.97
2022-12-13T13:17:01.366Z,100487.03
2022-12-13T13:19:30.990Z,100485.44
2022-12-13T13:22:02.552Z,100485.25
2022-12-13T13:24:34.633Z,100481.91
2022-12-13T13:27:10.391Z,100486.97
2022-12-13T13:29:38.546Z,100478.53
2022-12-13T13:32:28.547Z,100485.34
2022-12-13T13:35:28.637Z,100486.88
2022-12-13T13:37:56.221Z,100490.94
2022-12-13T13:40:32.252Z,100486.59
2022-12-13T13:43:11.148Z,100488.25
2022-12-13T13:45:54.904Z,100487.06
2022-12-13T13:48:43.513Z,100486.13
2022-12-13T13:52:16.796Z,100496.50
2022-12-13T13:54:56.591Z,100496.38
2022-12-13T13:58:09.226Z,100489.53
2022-12-13T14:01:09.082Z,100503.19
2022-12-13T14:04:00.466Z,100494.63
2022-12-13T14:07:00.952Z,100488.75
2022-12-13T14:09:48.558Z,100487.78
2022-12-13T14:12:52.536Z,100498.88
2022-12-13T14:15:28.564Z,100502.28
2022-12-13T14:18:29.327Z,100499.72
2022-12-13T14:21:27.976Z,100497.25
2022-12-13T14:24:35.019Z,100492.03
2022-12-13T14:27:25.563Z,100494.84
2022-12-13T14:29:58.309Z,100492.00
2022-12-13T14:32:30.330Z,100494.66
2022-12-13T14:34:57.872Z,100496.28
2022-12-13T14:37:24.478Z,100485.59
2022-12-13T14:39:51.202Z,100491.41
2022-12-13T14:42:24.872Z,100499.50
2022-12-13T14:44:52.720Z,100499.47
2022-12-13T14:47:22.698Z,100498.22
2022-12-13T14:49:54.153Z,100502.53
2022-12-13T14:52:28.676Z,100506.00
2022-12-13T14:54:58.837Z,100511.03
2022-12-13T14:57:29.698Z,100514.34
2022-12-13T14:59:58.632Z,100511.59
2022-12-13T15:02:32.351Z,100508.13
2022-12-13T15:05:02.185Z,100504.91
2022-12-13T15:07:36.007Z,100510.94
2022-12-13T15:10:20.717Z,100506.69
2022-12-13T15:12:48.359Z,100505.59
2022-12-13T15:15:23.212Z,100513.25
2022-12-13T15:17:49.859Z,100511.41
2022-12-13T15:20:26.491Z,100513.13
2022-12-13T15:22:58.995Z,100517.69
2022-12-13T15:25:25.844Z,100516.41
2022-12-13T15:27:52.903Z,100516.47
2022-12-13T15:30:20.587Z,100516.47
2022-12-13T15:33:28.937Z,100513.69
2022-12-13T15:36:19.422Z,100517.19
2022-12-13T15:38:55.064Z,100514.63
2022-12-13T15:41:26.733Z,100524.31
2022-12-13T15:43:56.132Z,100516.66
2022-12-13T15:46:25.044Z,100512.84
2022-12-13T15:48:53.657Z,100522.13
2022-12-13T15:51:29.113Z,100515.28
2022-12-13T15:54:23.428Z,100517.13
2022-12-13T15:57:18.209Z,100512.81
2022-12-13T15:59:45.959Z,100512.59
2022-12-13T16:02:20.648Z,100505.84
2022-12-13T16:04:47.496Z,100509.16
2022-12-13T16:07:23.568Z,100509.22
2022-12-13T16:09:50.875Z,100508.41
2022-12-13T16:12:23.792Z,100503.19
2022-12-13T16:14:50.436Z,100506.59
2022-12-13T16:17:23.222Z,100497.91
2022-12-13T16:19:50.518Z,100498.00
2022-12-13T16:22:17.773Z,100494.56
2022-12-13T16:24:44.366Z,100497.41
2022-12-13T16:27:10.971Z,100497.00
2022-12-13T16:29:37.643Z,100502.38
2022-12-13T16:32:08.871Z,100498.41
2022-12-13T16:34:36.580Z,100495.44
2022-12-13T16:37:25.287Z,100501.47
2022-12-13T16:39:50.485Z,100496.91
2022-12-13T16:42:17.092Z,100498.66
2022-12-13T16:44:43.722Z,100493.41
2022-12-13T16:47:21.947Z,100487.25
2022-12-13T16:49:53.813Z,100488.91
2022-12-13T16:52:22.057Z,100493.19
2022-12-13T16:54:48.710Z,100489.91
2022-12-13T16:57:15.332Z,100482.16
2022-12-13T16:59:41.929Z,100479.38
2022-12-13T17:02:16.860Z,100474.06
2022-12-13T17:04:43.486Z,100473.28
2022-12-13T17:07:10.067Z,100474.13
2022-12-13T17:09:36.742Z,100471.69
2022-12-13T17:12:03.393Z,100477.59
2022-12-13T17:14:30.204Z,100473.13
2022-12-13T17:16:56.942Z,100475.53
2022-12-13T17:19:24.085Z,100482.44
2022-12-13T17:21:50.771Z,100478.94
2022-12-13T17:24:20.285Z,100477.00
2022-12-13T17:26:54.772Z,100473.59
2022-12-13T17:29:25.602Z,100482.09
2022-12-13T17:31:53.382Z,100489.72
2022-12-13T17:34:41.917Z,100485.41
2022-12-13T17:37:17.601Z,100485.25
2022-12-13T17:39:50.540Z,100476.41
2022-12-13T17:42:27.173Z,100478.94
2022-12-13T17:44:54.368Z,100473.47
2022-12-13T17:47:24.245Z,100477.69
2022-12-13T17:49:51.327Z,100475.06
2022-12-13T17:52:20.202Z,100485.13
2022-12-13T17:54:47.006Z,100478.78
2022-12-13T17:57:13.834Z,100479.38
2022-12-13T17:59:43.049Z,100478.38
2022-12-13T18:02:12.487Z,100482.47
2022-12-13T18:04:39.249Z,100474.41
2022-12-13T18:07:05.891Z,100468.88
2022-12-13T18:09:32.821Z,100457.44
2022-12-13T18:11:59.581Z,100461.44
2022-12-13T18:14:26.322Z,100462.00
2022-12-13T18:16:54.072Z,100463.41
2022-12-13T18:19:22.902Z,100458.84
2022-12-13T18:21:49.535Z,100473.34
2022-12-13T18:24:16.150Z,100468.47
2022-12-13T18:26:42.799Z,100474.19
2022-12-13T18:29:11.437Z,100470.69
2022-12-13T18:31:38.264Z,100465.28
2022-12-13T18:34:05.903Z,100462.72
2022-12-13T18:36:32.957Z,100465.00
2022-12-13T18:39:00.079Z,100468.28
2022-12-13T18:41:29.133Z,100471.34
2022-12-13T18:44:02.053Z,100474.56
2022-12-13T18:46:30.548Z,100470.00
2022-12-13T18:48:57.875Z,100472.47
2022-12-13T18:51:25.276Z,100462.75
2022-12-13T18:53:52.106Z,100472.81
2022-12-13T18:56:19.570Z,100464.81
2022-12-13T18:58:48.119Z,100465.53
2022-12-13T19:01:15.920Z,100469.03
2022-12-13T19:03:44.629Z,100463.81
2022-12-13T19:06:19.690Z,100463.38
2022-12-13T19:08:51.385Z,100470.75
2022-12-13T19:11:18.619Z,100461.19
2022-12-13T19:13:45.316Z,100460.25
2022-12-13T19:16:14.326Z,100463.44
2022-12-13T19:18:41.072Z,100470.97
2022-12-13T19:21:08.943Z,100464.72
2022-12-13T19:23:36.103Z,100463.22
2022-12-13T19:26:10.371Z,100473.28
2022-12-13T19:28:37.088Z,100468.56
2022-12-13T19:31:08.398Z,100478.72
2022-12-13T19:33:35.296Z,100476.28
2022-12-13T19:36:02.606Z,100478.72
2022-12-13T19:38:29.919Z,100476.91
2022-12-13T19:40:56.516Z,100475.97
2022-12-13T19:43:23.510Z,100471.38
2022-12-13T19:45:50.473Z,100465.25
2022-12-13T19:48:17.350Z,100473.69
2022-12-13T19:50:44.506Z,100472.66
2022-12-13T19:53:11.760Z,100466.38
2022-12-13T19:55:43.512Z,100466.38
2022-12-13T19:58:10.181Z,100465.31
2022-12-13T20:00:36.886Z,100463.44
2022-12-13T20:03:04.208Z,100471.03
2022-12-13T20:05:30.989Z,100465.06
2022-12-13T20:07:58.062Z,100468.38
2022-12-13T20:10:25.520Z,100470.59
2022-12-13T20:12:52.290Z,100480.00
2022-12-13T20:15:18.988Z,100461.88
2022-12-13T20:17:45.625Z,100471.19
2022-12-13T20:20:12.228Z,100465.16
2022-12-13T20:22:38.830Z,100473.59
2022-12-13T20:25:07.136Z,100466.69
2022-12-13T20:27:33.805Z,100464.88
2022-12-13T20:30:00.460Z,100464.00
2022-12-13T20:32:27.273Z,100464.81
2022-12-13T20:34:55.076Z,100469.97
2022-12-13T20:37:22.294Z,100466.91
2022-12-13T20:39:49.096Z,100474.50
2022-12-13T20:42:15.710Z,100472.03
2022-12-13T20:44:42.307Z,100477.94
2022-12-13T20:47:09.060Z,100475.16
2022-12-13T20:49:35.740Z,100475.97
2022-12-13T20:52:02.354Z,100482.72
2022-12-13T20:54:29.245Z,100477.47
2022-12-13T20:56:55.976Z,100469.47
2022-12-13T20:59:22.620Z,100470.28
2022-12-13T21:01:49.564Z,100460.88
2022-12-13T21:04:16.936Z,100471.03
2022-12-13T21:06:43.673Z,100470.88
2022-12-13T21:09:11.415Z,100475.81
2022-12-13T21:11:43.186Z,100474.06
2022-12-13T21:14:20.954Z,100470.41
2022-12-13T21:16:52.904Z,100468.59
2022-12-13T21:19:24.376Z,100458.22
2022-12-13T21:21:52.005Z,100462.63
2022-12-13T21:24:22.882Z,100461.41
2022-12-13T21:26:51.114Z,100461.13
2022-12-13T21:29:20.895Z,100463.97
2022-12-13T21:31:54.825Z,100461.19
2022-12-13T21:34:22.353Z,100457.38
2022-12-13T21:36:51.916Z,100460.00
2022-12-13T21:39:24.478Z,100454.81
2022-12-13T21:41:51.267Z,100452.13
2022-12-13T21:44:18.247Z,100451.00
2022-12-13T21:47:11.469Z,100433.91
2022-12-13T21:49:31.896Z,100433.19
2022-12-13T21:51:58.568Z,100432.31
2022-12-13T21:54:25.353Z,100435.41
2022-12-13T21:57:10.742Z,100430.22
2022-12-13T21:59:37.319Z,100429.09
2022-12-13T22:02:22.427Z,100425.72
2022-12-13T22:04:54.908Z,100420.47
2022-12-13T22:07:29.049Z,100411.94
2022-12-13T22:09:57.237Z,100417.16
2022-12-13T22:12:31.684Z,100412.47
2022-12-13T22:14:58.600Z,100408.97
2022-12-13T22:17:33.103Z,100421.78
2022-12-13T22:20:02.610Z,100425.97
2022-12-13T22:22:29.371Z,100418.13
2022-12-13T22:24:56.184Z,100412.16
2022-12-13T22:27:25.977Z,100411.97
2022-12-13T22:29:56.887Z,100412.97
2022-12-13T22:32:27.113Z,100405.16
2022-12-13T22:35:00.747Z,100399.78
2022-12-13T22:37:27.627Z,100398.03
2022-12-13T22:39:54.528Z,100397.22
2022-12-13T22:42:24.193Z,100390.34
2022-12-13T22:44:51.039Z,100389.31
2022-12-13T22:47:17.792Z,100394.59
2022-12-13T22:49:48.848Z,100393.34
2022-12-13T22:52:16.684Z,100388.97
2022-12-13T22:54:45.409Z,100383.31
2022-12-13T22:57:17.843Z,100374.44
2022-12-13T22:59:45.051Z,100375.47
2022-12-13T23:02:11.883Z,100375.31
2022-12-13T23:04:38.815Z,100369.97
2022-12-13T23:07:05.962Z,100367.41
2022-12-13T23:09:32.618Z,100367.25
2022-12-13T23:12:19.498Z,100368.56
2022-12-13T23:14:46.335Z,100371.88
2022-12-13T23:17:13.509Z,100369.97
2022-12-13T23:19:49.643Z,100363.97
2022-12-13T23:22:24.510Z,100371.66
2022-12-13T23:24:54.723Z,100362.72
2022-12-13T23:27:27.270Z,100359.00
2022-12-13T23:29:58.865Z,100348.66
2022-12-13T23:32:27.769Z,100349.91
2022-12-13T23:35:05.109Z,100347.63
2022-12-13T23:37:32.046Z,100345.56
2022-12-13T23:39:58.646Z,100343.53
2022-12-13T23:42:29.108Z,100340.44
2022-12-13T23:45:04.773Z,100333.44
2022-12-13T23:47:31.506Z,100331.38
2022-12-13T23:49:58.167Z,100333.66
2022-12-13T23:52:24.791Z,100329.56
2022-12-13T23:54:51.426Z,100327.81
2022-12-13T23:57:18.887Z,100320.81
2022-12-13T23:59:46.483Z,100323.19
